Time;durP1;ratioP1;P1;durP2;ratioP2;P2;SDS_P1;SDS_P2;PMS_P1;PMS_P2;Temp;Humidity;BMP_temperature;BMP_pressure;BME280_temperature;BME280_humidity;BME280_pressure;Samples;Min_cycle;Max_cycle;Signal;HPM_P1;HPM_P2
2023/03/11 00:01:08;;;;;;;4.23;0.50;;;0.40;99.90;;;;;;5049924;28;20087;-49
2023/03/11 00:03:34;;;;;;;2.58;0.63;;;0.40;99.90;;;;;;5047743;28;20037;-48
2023/03/11 00:06:01;;;;;;;0.90;0.60;;;0.40;99.90;;;;;;5038106;28;20037;-50
2023/03/11 00:08:27;;;;;;;1.73;0.60;;;0.30;99.90;;;;;;5038775;28;20041;-48
2023/03/11 00:10:59;;;;;;;1.60;0.50;;;0.30;99.90;;;;;;5045721;28;20055;-48
2023/03/11 00:13:25;;;;;;;4.13;0.52;;;0.30;99.90;;;;;;5053416;28;20033;-48
2023/03/11 00:15:55;;;;;;;2.90;0.77;;;0.30;99.90;;;;;;5060625;28;20469;-48
2023/03/11 00:18:24;;;;;;;4.57;1.02;;;0.20;99.90;;;;;;5048580;28;20510;-48
2023/03/11 00:20:50;;;;;;;3.85;0.82;;;0.30;99.90;;;;;;5049360;28;20041;-49
2023/03/11 00:23:15;;;;;;;5.10;0.87;;;0.30;99.90;;;;;;5049679;28;20052;-48
2023/03/11 00:25:43;;;;;;;4.37;1.13;;;0.30;99.90;;;;;;5049854;28;20325;-48
2023/03/11 00:28:10;;;;;;;2.20;0.95;;;0.40;99.90;;;;;;5059552;28;20041;-47
2023/03/11 00:30:36;;;;;;;;;;;0.40;99.90;;;;;;5049495;28;20033;-47
2023/03/11 00:33:02;;;;;;;4.05;1.20;;;0.40;99.90;;;;;;5049933;28;19920;-48
2023/03/11 00:35:30;;;;;;;5.70;1.00;;;0.40;99.90;;;;;;5049928;28;20516;-48
2023/03/11 00:37:58;;;;;;;5.72;1.75;;;0.50;99.90;;;;;;5048740;28;20202;-48
2023/03/11 00:40:25;;;;;;;3.80;0.60;;;0.40;99.90;;;;;;5049268;28;20045;-48
2023/03/11 00:42:51;;;;;;;4.05;0.75;;;0.50;99.90;;;;;;5049377;28;20510;-47
2023/03/11 00:45:17;;;;;;;2.75;1.23;;;0.50;99.90;;;;;;5049582;28;20049;-48
2023/03/11 00:47:43;;;;;;;3.92;0.90;;;0.50;99.90;;;;;;5048507;28;20056;-46
2023/03/11 00:50:13;;;;;;;5.25;1.65;;;0.50;99.90;;;;;;5049547;28;20090;-47
2023/03/11 00:52:38;;;;;;;4.05;1.27;;;0.50;99.90;;;;;;5049550;28;20037;-47
2023/03/11 00:55:05;;;;;;;6.77;1.07;;;0.50;99.90;;;;;;5049506;28;20094;-47
2023/03/11 00:57:30;;;;;;;5.22;0.98;;;0.50;99.90;;;;;;5046917;28;20235;-47
2023/03/11 00:59:58;;;;;;;5.17;1.17;;;0.50;99.90;;;;;;5049194;28;20692;-48
2023/03/11 01:02:24;;;;;;;7.03;1.10;;;0.60;99.90;;;;;;5052641;28;20040;-47
2023/03/11 01:04:57;;;;;;;5.83;1.37;;;0.60;99.90;;;;;;5053188;28;20036;-48
2023/03/11 01:07:22;;;;;;;7.95;1.25;;;0.50;99.90;;;;;;5048682;28;20334;-50
2023/03/11 01:09:48;;;;;;;1.83;1.43;;;0.50;99.90;;;;;;5046283;28;20494;-48
2023/03/11 01:12:13;;;;;;;4.50;0.90;;;0.60;99.90;;;;;;5031192;28;20036;-50
2023/03/11 01:14:39;;;;;;;2.90;1.07;;;0.50;99.90;;;;;;5039879;28;20037;-48
2023/03/11 01:17:04;;;;;;;5.30;0.87;;;0.50;99.90;;;;;;5038276;28;20071;-49
2023/03/11 01:19:30;;;;;;;7.47;1.97;;;0.50;99.90;;;;;;5031721;28;20077;-48
2023/03/11 01:21:55;;;;;;;5.93;1.10;;;0.50;99.90;;;;;;5035768;28;20033;-48
2023/03/11 01:24:21;;;;;;;2.40;1.00;;;0.50;99.90;;;;;;5045742;28;20095;-47
2023/03/11 01:26:47;;;;;;;5.00;1.27;;;0.50;99.90;;;;;;5040471;28;20037;-49
2023/03/11 01:29:12;;;;;;;7.03;1.33;;;0.50;99.90;;;;;;5049179;28;20090;-48
2023/03/11 01:31:38;;;;;;;4.03;1.07;;;0.40;99.90;;;;;;5062410;28;20091;-48
2023/03/11 01:34:03;;;;;;;7.10;0.70;;;0.40;99.90;;;;;;5052696;28;20029;-48
2023/03/11 01:36:29;;;;;;;3.07;0.90;;;0.40;99.90;;;;;;5052775;28;20044;-47
2023/03/11 01:38:54;;;;;;;6.87;1.30;;;0.40;99.90;;;;;;5051208;28;20040;-46
2023/03/11 01:41:20;;;;;;;4.70;1.33;;;0.40;99.90;;;;;;5052391;28;20498;-48
2023/03/11 01:43:50;;;;;;;4.13;0.97;;;0.40;99.90;;;;;;5048383;28;20092;-48
2023/03/11 01:46:20;;;;;;;8.77;2.25;;;0.40;99.90;;;;;;5032703;28;20112;-48
2023/03/11 01:48:52;;;;;;;2.72;0.93;;;0.40;99.90;;;;;;5031191;28;20049;-48
2023/03/11 01:51:27;;;;;;;6.22;0.57;;;0.40;99.90;;;;;;5032725;28;20052;-48
2023/03/11 01:53:54;;;;;;;6.38;0.90;;;0.50;99.90;;;;;;5031975;28;20403;-49
2023/03/11 01:56:20;;;;;;;2.30;0.77;;;0.40;99.90;;;;;;5032708;28;20045;-47
2023/03/11 01:58:51;;;;;;;6.22;0.85;;;0.50;99.90;;;;;;5031452;28;20056;-47
2023/03/11 02:01:17;;;;;;;2.80;0.90;;;0.50;99.90;;;;;;5032411;28;20072;-48
2023/03/11 02:03:43;;;;;;;9.68;1.10;;;0.50;99.90;;;;;;5032552;28;20044;-48
2023/03/11 02:06:14;;;;;;;3.07;1.00;;;0.50;99.90;;;;;;5032124;28;20037;-47
2023/03/11 02:08:41;;;;;;;4.30;0.68;;;0.50;99.90;;;;;;5030914;28;20067;-48
2023/03/11 02:11:09;;;;;;;4.65;0.75;;;0.50;99.90;;;;;;5031820;28;20056;-48
2023/03/11 02:13:36;;;;;;;7.18;0.75;;;0.40;99.90;;;;;;5032272;28;20049;-47
2023/03/11 02:16:03;;;;;;;3.58;0.73;;;0.40;99.90;;;;;;5032101;28;20113;-48
2023/03/11 02:18:29;;;;;;;5.13;0.65;;;0.40;99.90;;;;;;5032064;28;20069;-47
2023/03/11 02:21:05;;;;;;;7.88;0.80;;;0.40;99.90;;;;;;5040839;28;20523;-48
2023/03/11 02:23:52;;;;;;;36.60;2.30;;;0.40;99.90;;;;;;5052412;28;20079;-48
2023/03/11 02:26:28;;;;;;;4.78;0.60;;;0.40;99.90;;;;;;5052034;28;20055;-47
2023/03/11 02:28:55;;;;;;;5.78;0.45;;;0.40;99.90;;;;;;5042738;28;20402;-48
2023/03/11 02:31:21;;;;;;;2.72;1.13;;;0.40;99.90;;;;;;5051560;28;20047;-48
2023/03/11 02:33:49;;;;;;;;;;;0.40;99.90;;;;;;5042985;28;20037;-48
2023/03/11 02:36:32;;;;;;;3.08;0.60;;;0.40;99.90;;;;;;5048529;28;19917;-47
2023/03/11 02:38:58;;;;;;;5.32;0.75;;;0.40;99.90;;;;;;5041965;28;20049;-48
2023/03/11 02:41:24;;;;;;;5.47;0.80;;;0.40;99.90;;;;;;5039421;28;20038;-47
2023/03/11 02:43:49;;;;;;;3.97;1.23;;;0.50;99.90;;;;;;5050253;28;20494;-47
2023/03/11 02:46:16;;;;;;;7.03;1.03;;;0.40;99.90;;;;;;5044425;28;20040;-47
2023/03/11 02:48:42;;;;;;;5.25;0.60;;;0.40;99.90;;;;;;5058653;28;20040;-47
2023/03/11 02:51:08;;;;;;;2.20;0.50;;;0.40;99.90;;;;;;5071175;28;20037;-48
2023/03/11 02:53:40;;;;;;;8.27;0.93;;;0.40;99.90;;;;;;5071368;28;20389;-47
2023/03/11 02:56:05;;;;;;;4.80;0.60;;;0.40;99.90;;;;;;5070005;28;20036;-48
2023/03/11 02:58:31;;;;;;;4.30;0.57;;;0.40;99.90;;;;;;5063360;28;20036;-47
2023/03/11 03:00:57;;;;;;;5.80;0.82;;;0.40;99.90;;;;;;5050993;28;20044;-47
2023/03/11 03:03:23;;;;;;;1.83;0.60;;;0.40;99.90;;;;;;5051150;28;20048;-48
2023/03/11 03:05:48;;;;;;;4.87;0.60;;;0.40;99.90;;;;;;5051234;28;20032;-48
2023/03/11 03:08:14;;;;;;;3.47;0.60;;;0.40;99.90;;;;;;5050196;28;20517;-46
2023/03/11 03:10:39;;;;;;;3.40;0.80;;;0.40;99.90;;;;;;5049640;28;20116;-48
2023/03/11 03:13:05;;;;;;;2.93;0.70;;;0.40;99.90;;;;;;5049298;28;20033;-48
2023/03/11 03:15:30;;;;;;;5.07;1.23;;;0.40;99.90;;;;;;5051255;28;20463;-48
2023/03/11 03:17:56;;;;;;;5.77;0.70;;;0.40;99.90;;;;;;5049819;28;20579;-48
2023/03/11 03:20:22;;;;;;;4.17;0.70;;;0.30;99.90;;;;;;5050601;28;20044;-47
2023/03/11 03:22:49;;;;;;;4.63;0.93;;;0.30;99.90;;;;;;5050660;28;20044;-48
2023/03/11 03:25:15;;;;;;;2.92;0.50;;;0.30;99.90;;;;;;5064928;28;20075;-48
2023/03/11 03:27:40;;;;;;;3.80;0.60;;;0.30;99.90;;;;;;5069049;28;20072;-48
2023/03/11 03:30:08;;;;;;;3.13;0.70;;;0.20;99.90;;;;;;5070643;28;20064;-48
2023/03/11 03:32:34;;;;;;;3.75;1.23;;;0.20;99.90;;;;;;5057574;28;20047;-47
2023/03/11 03:35:00;;;;;;;2.50;0.50;;;0.10;99.90;;;;;;5037078;28;20079;-49
2023/03/11 03:37:26;;;;;;;4.10;0.60;;;0.00;99.90;;;;;;5049584;28;20071;-48
2023/03/11 03:39:52;;;;;;;6.15;0.70;;;0.00;99.90;;;;;;5042859;28;20091;-47
2023/03/11 03:42:18;;;;;;;5.72;0.70;;;-0.10;99.90;;;;;;5036591;28;20041;-48
2023/03/11 03:44:44;;;;;;;2.85;0.75;;;-0.10;99.90;;;;;;5040349;28;20102;-48
2023/03/11 03:47:10;;;;;;;6.23;0.70;;;-0.20;99.90;;;;;;5039759;28;20037;-48
2023/03/11 03:49:36;;;;;;;2.67;0.75;;;-0.30;99.90;;;;;;5035323;28;20113;-47
2023/03/11 03:52:04;;;;;;;2.22;0.63;;;-0.30;99.90;;;;;;5042276;28;20047;-49
2023/03/11 03:54:30;;;;;;;3.08;0.70;;;-0.40;99.90;;;;;;5043270;28;20045;-47
2023/03/11 03:56:57;;;;;;;2.92;0.70;;;-0.40;99.90;;;;;;5043581;28;20048;-47
2023/03/11 03:59:23;;;;;;;2.70;0.77;;;-0.40;99.90;;;;;;5047882;28;20607;-48
2023/03/11 04:01:48;;;;;;;1.97;0.50;;;-0.50;99.90;;;;;;5030176;28;20120;-48
2023/03/11 04:04:14;;;;;;;6.43;0.73;;;-0.50;99.90;;;;;;5030055;28;20041;-49
2023/03/11 04:06:41;;;;;;;6.47;0.70;;;-0.50;99.90;;;;;;5030090;28;20291;-48
2023/03/11 04:09:06;;;;;;;;;;;-0.50;99.90;;;;;;5029127;28;20326;-47
2023/03/11 04:11:32;;;;;;;1.67;1.27;;;-0.50;99.90;;;;;;5029836;28;20011;-47
2023/03/11 04:13:57;;;;;;;2.27;0.70;;;-0.60;99.90;;;;;;5050228;28;20043;-48
2023/03/11 04:16:23;;;;;;;5.57;0.93;;;-0.60;99.90;;;;;;5050112;28;20500;-48
2023/03/11 04:18:49;;;;;;;5.93;0.60;;;-0.60;99.90;;;;;;5048743;28;20037;-47
2023/03/11 04:21:15;;;;;;;3.42;1.00;;;-0.60;99.90;;;;;;5049755;28;20056;-49
2023/03/11 04:23:41;;;;;;;5.20;1.03;;;-0.70;99.90;;;;;;5049853;28;20080;-48
2023/03/11 04:26:06;;;;;;;3.60;1.27;;;-0.70;99.90;;;;;;5049666;28;20044;-46
2023/03/11 04:28:32;;;;;;;4.53;1.53;;;-0.70;99.90;;;;;;5055623;28;20039;-48
2023/03/11 04:30:58;;;;;;;6.32;0.52;;;-0.70;99.90;;;;;;5069722;28;20436;-48
2023/03/11 04:33:23;;;;;;;4.33;1.23;;;-0.80;99.90;;;;;;5069896;28;20086;-48
2023/03/11 04:35:49;;;;;;;3.00;0.60;;;-0.80;99.90;;;;;;5045076;28;20029;-48
2023/03/11 04:38:15;;;;;;;2.57;0.50;;;-0.80;99.90;;;;;;5037995;28;20111;-48
2023/03/11 04:40:40;;;;;;;2.83;0.60;;;-0.80;99.90;;;;;;5035744;28;20037;-47
2023/03/11 04:43:06;;;;;;;2.30;0.80;;;-0.80;99.90;;;;;;5049489;28;20041;-48
2023/03/11 04:45:32;;;;;;;4.55;0.70;;;-0.90;99.90;;;;;;5038897;28;20045;-47
2023/03/11 04:47:57;;;;;;;5.83;0.80;;;-0.90;99.90;;;;;;5028607;28;20072;-47
2023/03/11 04:50:23;;;;;;;5.00;0.40;;;-0.90;99.90;;;;;;5029101;28;20041;-48
2023/03/11 04:52:49;;;;;;;3.65;0.70;;;-1.00;99.90;;;;;;5028487;28;20402;-47
2023/03/11 04:55:15;;;;;;;2.83;0.50;;;-1.00;99.90;;;;;;5036966;28;20052;-48
2023/03/11 04:57:42;;;;;;;2.72;0.82;;;-1.00;99.90;;;;;;5055957;28;20131;-48
2023/03/11 05:00:14;;;;;;;4.20;0.60;;;-1.00;99.90;;;;;;5045688;28;20056;-47
2023/03/11 05:02:40;;;;;;;5.15;0.90;;;-1.00;99.90;;;;;;5042925;28;20060;-47
2023/03/11 05:05:08;;;;;;;9.85;0.70;;;-1.10;99.90;;;;;;5044517;28;20387;-48
2023/03/11 05:07:35;;;;;;;5.38;0.73;;;-1.10;99.90;;;;;;5052074;28;20048;-48
2023/03/11 05:10:00;;;;;;;3.55;0.60;;;-1.10;99.90;;;;;;5046269;28;20384;-48
2023/03/11 05:12:26;;;;;;;3.45;0.77;;;-1.20;99.90;;;;;;5046385;28;20040;-47
2023/03/11 05:14:52;;;;;;;3.63;0.60;;;-1.20;99.90;;;;;;5045412;28;20060;-48
2023/03/11 05:17:18;;;;;;;8.73;0.80;;;-1.30;99.90;;;;;;5052589;28;20037;-48
2023/03/11 05:19:44;;;;;;;5.65;0.68;;;-1.30;99.90;;;;;;5033187;28;20045;-47
2023/03/11 05:22:10;;;;;;;2.83;0.80;;;-1.30;99.90;;;;;;5032619;28;20041;-48
2023/03/11 05:24:36;;;;;;;3.80;0.90;;;-1.40;99.90;;;;;;5033218;28;20068;-47
2023/03/11 05:27:02;;;;;;;5.47;0.73;;;-1.40;99.90;;;;;;5032638;28;20134;-48
2023/03/11 05:29:28;;;;;;;;;;;-1.40;99.90;;;;;;5032122;28;20637;-49
2023/03/11 05:31:53;;;;;;;1.80;0.90;;;-1.40;99.90;;;;;;5051640;28;19928;-48
2023/03/11 05:34:19;;;;;;;3.00;0.73;;;-1.50;99.90;;;;;;5062611;28;20040;-47
2023/03/11 05:36:44;;;;;;;5.50;1.10;;;-1.50;99.90;;;;;;5072409;28;20043;-48
2023/03/11 05:39:10;;;;;;;2.60;0.80;;;-1.50;99.90;;;;;;5070233;28;20070;-46
2023/03/11 05:41:36;;;;;;;4.85;1.00;;;-1.50;99.90;;;;;;5051420;28;20045;-47
2023/03/11 05:44:02;;;;;;;3.70;0.93;;;-1.60;99.90;;;;;;5034008;28;20474;-48
2023/03/11 05:46:28;;;;;;;5.00;0.82;;;-1.60;99.90;;;;;;5037755;28;20041;-47
2023/03/11 05:48:54;;;;;;;4.43;0.73;;;-1.60;99.90;;;;;;5051267;28;20075;-47
2023/03/11 05:51:20;;;;;;;10.53;1.30;;;-1.60;99.90;;;;;;5052384;28;20445;-47
2023/03/11 05:53:47;;;;;;;2.57;0.63;;;-1.60;99.90;;;;;;5052014;28;20063;-48
2023/03/11 05:56:14;;;;;;;4.60;0.88;;;-1.70;99.90;;;;;;5052617;28;20041;-47
2023/03/11 05:58:40;;;;;;;9.80;0.70;;;-1.70;99.90;;;;;;5045741;28;20550;-48
2023/03/11 06:01:08;;;;;;;1.88;0.80;;;-1.70;99.90;;;;;;5032142;28;20041;-48
2023/03/11 06:03:34;;;;;;;7.88;1.83;;;-1.70;99.90;;;;;;5032015;28;20042;-49
2023/03/11 06:05:59;;;;;;;3.60;0.77;;;-1.70;99.90;;;;;;5031948;28;20037;-48
2023/03/11 06:08:25;;;;;;;3.80;0.80;;;-1.70;99.90;;;;;;5031637;28;20044;-47
2023/03/11 06:10:51;;;;;;;9.37;0.93;;;-1.60;99.90;;;;;;5031782;28;20037;-47
2023/03/11 06:13:16;;;;;;;3.90;0.70;;;-1.60;99.90;;;;;;5038598;28;20041;-48
2023/03/11 06:15:43;;;;;;;1.97;0.70;;;-1.50;99.90;;;;;;5042906;28;20040;-48
2023/03/11 06:18:09;;;;;;;6.05;1.13;;;-1.40;99.90;;;;;;5040658;28;20048;-47
2023/03/11 06:20:36;;;;;;;3.45;1.05;;;-1.30;99.90;;;;;;5037384;28;20482;-48
2023/03/11 06:23:02;;;;;;;4.53;0.90;;;-1.10;99.90;;;;;;5037961;28;20080;-48
2023/03/11 06:25:27;;;;;;;1.23;0.80;;;-0.90;99.90;;;;;;5032304;28;20076;-48
2023/03/11 06:27:53;;;;;;;1.60;0.63;;;-0.60;99.90;;;;;;5031353;28;20487;-48
2023/03/11 06:30:19;;;;;;;3.07;0.83;;;-0.40;99.90;;;;;;5031406;28;20064;-48
2023/03/11 06:32:45;;;;;;;3.50;1.02;;;-0.10;99.90;;;;;;5031776;28;20030;-49
2023/03/11 06:35:11;;;;;;;5.30;0.65;;;0.30;99.90;;;;;;5053033;28;20060;-47
2023/03/11 06:37:37;;;;;;;12.25;1.30;;;0.60;99.90;;;;;;5070569;28;20531;-48
2023/03/11 06:40:07;;;;;;;4.20;0.93;;;0.90;99.90;;;;;;5058086;28;20047;-46
2023/03/11 06:42:33;;;;;;;3.78;0.82;;;1.30;99.90;;;;;;5051134;28;20279;-47
2023/03/11 06:44:59;;;;;;;2.22;0.60;;;1.50;99.90;;;;;;5044365;28;20094;-48
2023/03/11 06:47:25;;;;;;;2.17;0.63;;;1.80;99.90;;;;;;5046169;28;20052;-48
2023/03/11 06:49:51;;;;;;;1.30;0.65;;;2.00;99.90;;;;;;5038985;28;20033;-48
2023/03/11 06:52:17;;;;;;;1.00;0.30;;;2.30;99.90;;;;;;5050326;28;20041;-48
2023/03/11 06:54:43;;;;;;;2.87;0.57;;;2.50;99.90;;;;;;5038937;28;20091;-48
2023/03/11 06:57:08;;;;;;;6.10;0.50;;;2.70;99.90;;;;;;5031279;28;20037;-48
2023/03/11 06:59:35;;;;;;;3.08;0.80;;;3.00;99.90;;;;;;5030134;28;20454;-49
2023/03/11 07:02:02;;;;;;;1.75;0.60;;;3.40;99.90;;;;;;5031404;28;20041;-48
2023/03/11 07:04:28;;;;;;;2.65;0.43;;;3.80;99.90;;;;;;5031055;28;20479;-46
2023/03/11 07:06:54;;;;;;;3.55;0.40;;;4.30;99.90;;;;;;5042828;28;20489;-48
2023/03/11 07:09:21;;;;;;;2.30;0.57;;;4.80;99.90;;;;;;5049844;28;20078;-48
2023/03/11 07:11:47;;;;;;;3.60;0.52;;;5.00;99.90;;;;;;5051052;28;20406;-47
2023/03/11 07:14:13;;;;;;;8.60;0.60;;;4.80;99.90;;;;;;5050853;28;20060;-47
2023/03/11 07:16:39;;;;;;;4.90;0.38;;;4.40;99.90;;;;;;5050850;28;20586;-47
2023/03/11 07:19:05;;;;;;;4.43;0.65;;;3.90;99.90;;;;;;5048898;28;20044;-47
2023/03/11 07:21:31;;;;;;;8.50;0.70;;;3.60;99.90;;;;;;5050226;28;20041;-48
2023/03/11 07:23:59;;;;;;;2.60;0.43;;;3.30;99.90;;;;;;5050835;28;20048;-49
2023/03/11 07:26:27;;;;;;;4.50;0.50;;;3.10;99.90;;;;;;5050579;28;20041;-47
2023/03/11 07:28:53;;;;;;;2.30;0.93;;;3.00;99.90;;;;;;5049240;28;20398;-47
2023/03/11 07:31:23;;;;;;;7.88;0.77;;;2.80;99.90;;;;;;5049962;28;20090;-48
2023/03/11 07:33:49;;;;;;;4.20;0.75;;;2.80;99.90;;;;;;5044922;28;20056;-48
2023/03/11 07:36:19;;;;;;;4.30;0.70;;;2.70;99.90;;;;;;5039179;28;20033;-49
2023/03/11 07:38:46;;;;;;;3.55;0.82;;;2.60;99.90;;;;;;5038189;28;20056;-49
2023/03/11 07:41:13;;;;;;;4.63;0.52;;;2.60;99.90;;;;;;5038849;28;20080;-49
2023/03/11 07:43:40;;;;;;;2.88;0.60;;;2.60;99.90;;;;;;5036128;28;20059;-48
2023/03/11 07:46:15;;;;;;;4.97;0.50;;;2.50;99.90;;;;;;5043120;28;20033;-48
2023/03/11 07:48:41;;;;;;;6.38;0.60;;;2.50;99.90;;;;;;5040830;28;20067;-48
2023/03/11 07:51:08;;;;;;;2.03;0.73;;;2.40;99.90;;;;;;5044736;28;20044;-48
2023/03/11 07:53:35;;;;;;;4.00;0.65;;;2.30;99.90;;;;;;5044740;28;20044;-49
2023/03/11 07:56:01;;;;;;;5.40;0.68;;;2.30;99.90;;;;;;5061342;28;20493;-48
2023/03/11 07:58:27;;;;;;;5.03;0.80;;;2.20;99.90;;;;;;5046638;28;20459;-50
2023/03/11 08:00:55;;;;;;;2.40;0.77;;;2.20;99.90;;;;;;5069677;28;20055;-48
2023/03/11 08:03:23;;;;;;;2.25;0.43;;;2.20;99.90;;;;;;5041609;28;20041;-48
2023/03/11 08:05:49;;;;;;;5.30;1.02;;;2.20;99.90;;;;;;5046509;28;20120;-49
2023/03/11 08:08:15;;;;;;;5.70;0.88;;;2.20;99.90;;;;;;5035993;28;20076;-48
2023/03/11 08:10:40;;;;;;;3.08;0.63;;;2.10;99.90;;;;;;5033280;28;20064;-48
2023/03/11 08:13:06;;;;;;;2.77;0.50;;;2.20;99.90;;;;;;5068956;28;20946;-48
2023/03/11 08:15:31;;;;;;;5.33;0.70;;;2.10;99.90;;;;;;5049000;28;20106;-49
2023/03/11 08:17:57;;;;;;;2.13;1.10;;;2.10;99.90;;;;;;5043637;28;20033;-48
2023/03/11 08:20:23;;;;;;;4.37;0.70;;;2.20;99.90;;;;;;5032216;28;20072;-48
2023/03/11 08:22:48;;;;;;;2.57;0.90;;;2.20;99.90;;;;;;5029830;28;20038;-49
2023/03/11 08:25:14;;;;;;;2.00;0.70;;;2.20;99.90;;;;;;5055836;28;20048;-48
2023/03/11 08:27:40;;;;;;;5.10;0.60;;;2.20;99.90;;;;;;5065851;28;20055;-49
2023/03/11 08:30:06;;;;;;;;;;;2.30;99.90;;;;;;5035606;28;20247;-48
2023/03/11 08:32:32;;;;;;;3.88;0.65;;;2.30;99.90;;;;;;5029419;28;19928;-48
2023/03/11 08:35:01;;;;;;;8.27;1.03;;;2.30;99.90;;;;;;5040120;28;20037;-48
2023/03/11 08:37:26;;;;;;;2.60;0.50;;;2.40;99.90;;;;;;5048939;28;20053;-48
2023/03/11 08:39:52;;;;;;;3.70;0.60;;;2.40;99.90;;;;;;5036202;28;20124;-48
2023/03/11 08:42:18;;;;;;;5.50;0.70;;;2.50;99.90;;;;;;5032512;28;20041;-49
2023/03/11 08:44:44;;;;;;;6.90;0.68;;;2.60;99.90;;;;;;5047071;28;20090;-49
2023/03/11 08:47:09;;;;;;;3.17;0.83;;;2.60;99.90;;;;;;5044453;28;20030;-49
2023/03/11 08:49:36;;;;;;;3.00;1.53;;;2.70;99.90;;;;;;5028355;28;20120;-49
2023/03/11 08:52:03;;;;;;;4.85;0.65;;;2.80;99.90;;;;;;5039035;28;20067;-50
2023/03/11 08:54:29;;;;;;;3.83;0.80;;;2.90;99.90;;;;;;5049331;28;20044;-49
2023/03/11 08:56:54;;;;;;;1.67;0.60;;;2.90;99.90;;;;;;5048399;28;20430;-48
2023/03/11 08:59:20;;;;;;;2.53;1.23;;;3.00;99.90;;;;;;5043632;28;20384;-49
2023/03/11 09:01:46;;;;;;;6.03;0.73;;;3.20;99.90;;;;;;5029671;28;20045;-49
2023/03/11 09:04:12;;;;;;;6.27;0.60;;;3.20;99.90;;;;;;5029507;28;20116;-49
2023/03/11 09:06:42;;;;;;;3.08;0.65;;;3.30;99.90;;;;;;5029118;28;20104;-48
2023/03/11 09:09:10;;;;;;;5.75;0.63;;;3.50;99.90;;;;;;5027969;28;20041;-49
2023/03/11 09:11:36;;;;;;;3.63;1.15;;;3.60;99.90;;;;;;5035679;28;20106;-49
2023/03/11 09:14:02;;;;;;;3.42;0.63;;;3.70;99.90;;;;;;5023764;28;20516;-49
2023/03/11 09:16:28;;;;;;;5.20;1.35;;;3.90;99.90;;;;;;5030432;28;20048;-49
2023/03/11 09:18:54;;;;;;;2.40;1.00;;;4.00;99.90;;;;;;5029398;28;20414;-48
2023/03/11 09:21:19;;;;;;;1.10;0.60;;;4.10;99.90;;;;;;5029215;28;20041;-48
2023/03/11 09:23:46;;;;;;;7.00;0.80;;;4.10;99.90;;;;;;5039714;28;20769;-47
2023/03/11 09:26:13;;;;;;;8.93;1.58;;;4.10;99.90;;;;;;5030569;28;20053;-49
2023/03/11 09:28:39;;;;;;;1.02;0.82;;;4.20;99.90;;;;;;5030727;28;20047;-49
2023/03/11 09:31:05;;;;;;;;;;;4.20;99.90;;;;;;5037628;28;20915;-48
2023/03/11 09:33:31;;;;;;;3.47;1.10;;;4.30;99.90;;;;;;5043489;28;20007;-48
2023/03/11 09:35:57;;;;;;;1.93;0.90;;;4.40;99.90;;;;;;5046171;28;20045;-49
2023/03/11 09:38:23;;;;;;;;;;;4.40;99.90;;;;;;5040099;28;20645;-49
2023/03/11 09:41:05;;;;;;;4.47;0.70;;;4.40;99.90;;;;;;5037287;28;20011;-49
2023/03/11 09:43:33;;;;;;;1.30;0.50;;;4.50;99.90;;;;;;5039030;28;20036;-49
2023/03/11 09:46:23;;;;;;;2.75;0.50;;;4.50;99.90;;;;;;5040022;28;20033;-50
2023/03/11 09:49:03;;;;;;;5.47;1.50;;;4.50;99.90;;;;;;5049236;28;20098;-50
2023/03/11 09:51:34;;;;;;;8.40;1.08;;;4.60;99.90;;;;;;5052161;28;20057;-48
2023/03/11 09:54:04;;;;;;;3.92;0.50;;;4.60;99.90;;;;;;5032876;28;20411;-49
2023/03/11 09:56:33;;;;;;;1.45;0.40;;;4.60;99.90;;;;;;5035479;28;20341;-50
2023/03/11 09:59:04;;;;;;;3.58;1.13;;;4.70;99.90;;;;;;5040953;28;20127;-49
2023/03/11 10:01:36;;;;;;;3.47;0.85;;;4.70;99.90;;;;;;5032614;28;20033;-49
2023/03/11 10:04:16;;;;;;;3.10;0.50;;;4.80;99.90;;;;;;5048508;28;20516;-49
2023/03/11 10:06:45;;;;;;;4.50;1.30;;;4.80;99.90;;;;;;5032530;28;20037;-48
2023/03/11 10:09:11;;;;;;;7.20;0.80;;;4.80;99.90;;;;;;5031875;28;20382;-49
2023/03/11 10:11:54;;;;;;;6.03;0.70;;;4.90;99.90;;;;;;5039512;28;20120;-49
2023/03/11 10:15:03;;;;;;;2.85;0.50;;;5.00;99.90;;;;;;5039885;28;20141;-49
2023/03/11 10:17:52;;;;;;;12.25;0.85;;;5.00;99.90;;;;;;5033023;28;20644;-49
2023/03/11 10:20:33;;;;;;;1.77;0.50;;;5.00;99.90;;;;;;5038157;28;20319;-48
2023/03/11 10:23:32;;;;;;;9.45;0.73;;;5.00;99.90;;;;;;5048458;28;20076;-48
2023/03/11 10:26:13;;;;;;;6.20;1.33;;;5.00;99.90;;;;;;5041576;28;20041;-47
2023/03/11 10:29:00;;;;;;;8.85;0.80;;;4.90;99.90;;;;;;5047435;28;20514;-50
2023/03/11 10:31:50;;;;;;;3.83;1.75;;;4.90;99.90;;;;;;5039993;28;20037;-48
2023/03/11 10:34:25;;;;;;;1.98;0.50;;;5.00;99.90;;;;;;5043923;28;20478;-48
2023/03/11 10:36:58;;;;;;;3.72;0.68;;;5.00;99.90;;;;;;5054676;28;20053;-48
2023/03/11 10:39:25;;;;;;;1.73;0.52;;;5.00;99.90;;;;;;5047359;28;20514;-49
2023/03/11 10:41:58;;;;;;;3.20;0.70;;;5.00;99.90;;;;;;5031509;28;20045;-49
2023/03/11 10:44:26;;;;;;;10.07;1.05;;;5.10;99.90;;;;;;5031118;28;20069;-49
2023/03/11 10:46:52;;;;;;;4.20;0.50;;;5.00;99.90;;;;;;5034595;28;20495;-49
2023/03/11 10:49:17;;;;;;;3.17;0.40;;;5.10;99.90;;;;;;5045049;28;20051;-49
2023/03/11 10:51:46;;;;;;;3.83;0.80;;;5.10;99.90;;;;;;5042225;28;20136;-49
2023/03/11 10:54:31;;;;;;;2.78;0.73;;;5.20;99.90;;;;;;5033519;28;20064;-49
2023/03/11 10:56:59;;;;;;;3.75;0.68;;;5.20;99.90;;;;;;5047464;28;20552;-49
2023/03/11 10:59:27;;;;;;;3.63;0.93;;;5.30;99.90;;;;;;5031933;28;20120;-48
2023/03/11 11:01:58;;;;;;;3.55;0.82;;;5.40;99.90;;;;;;5040469;28;20376;-47
2023/03/11 11:04:36;;;;;;;5.60;0.73;;;5.40;99.90;;;;;;5050848;28;20200;-49
2023/03/11 11:07:40;;;;;;;;;;;5.50;99.90;;;;;;5040720;28;20045;-50
2023/03/11 11:10:11;;;;;;;7.07;0.60;;;5.50;99.90;;;;;;4969229;28;19922;-49
2023/03/11 11:12:50;;;;;;;6.05;0.80;;;5.60;99.90;;;;;;4990484;28;20042;-49
2023/03/11 11:15:27;;;;;;;5.90;1.45;;;5.60;99.90;;;;;;5004719;28;20057;-49
2023/03/11 11:17:57;;;;;;;6.63;1.17;;;5.70;99.90;;;;;;5044736;28;20076;-49
2023/03/11 11:20:24;;;;;;;8.10;2.08;;;5.80;99.90;;;;;;5045991;28;20041;-49
2023/03/11 11:22:55;;;;;;;8.80;1.45;;;5.80;99.90;;;;;;5036749;28;20415;-50
2023/03/11 11:25:34;;;;;;;2.47;0.85;;;5.80;99.90;;;;;;5033798;28;20099;-52
2023/03/11 11:28:04;;;;;;;3.22;0.55;;;5.90;99.90;;;;;;5033303;28;20052;-48
2023/03/11 11:30:30;;;;;;;5.20;1.08;;;5.90;99.90;;;;;;5037941;28;20033;-49
2023/03/11 11:33:16;;;;;;;5.65;0.68;;;6.10;99.90;;;;;;5048289;28;20079;-50
2023/03/11 11:35:50;;;;;;;3.58;0.30;;;6.10;99.90;;;;;;5029860;28;20055;-49
2023/03/11 11:38:15;;;;;;;9.13;0.75;;;6.10;99.90;;;;;;5046244;28;20047;-51
2023/03/11 11:40:41;;;;;;;7.07;0.60;;;6.10;99.90;;;;;;5047745;28;20124;-48
2023/03/11 11:43:30;;;;;;;12.70;1.70;;;6.10;99.90;;;;;;5033132;28;20049;-49
2023/03/11 11:45:59;;;;;;;4.35;0.40;;;6.20;99.90;;;;;;5061209;28;20813;-49
2023/03/11 11:48:46;;;;;;;7.18;0.55;;;6.20;99.90;;;;;;5047292;28;20502;-49
2023/03/11 11:51:31;;;;;;;5.63;1.00;;;6.30;99.90;;;;;;5034146;28;20521;-50
2023/03/11 11:54:06;;;;;;;6.75;0.98;;;6.40;99.90;;;;;;5034530;28;20655;-48
2023/03/11 11:56:31;;;;;;;0.98;0.32;;;6.40;99.90;;;;;;5035457;28;20042;-48
2023/03/11 11:58:57;;;;;;;4.77;0.60;;;6.50;99.90;;;;;;5034409;28;20060;-48
2023/03/11 12:01:38;;;;;;;8.13;0.70;;;6.60;99.90;;;;;;5050046;28;20033;-49
2023/03/11 12:04:21;;;;;;;4.18;0.30;;;6.60;99.90;;;;;;5049020;28;20041;-50
2023/03/11 12:07:03;;;;;;;4.82;0.45;;;6.70;99.90;;;;;;5050004;28;20052;-50
2023/03/11 12:09:40;;;;;;;4.78;0.30;;;6.80;99.90;;;;;;5049205;28;20045;-49
2023/03/11 12:12:24;;;;;;;3.72;0.65;;;6.80;99.90;;;;;;5018999;28;20048;-49
2023/03/11 12:15:00;;;;;;;4.32;0.50;;;6.90;99.90;;;;;;5029726;28;20064;-48
2023/03/11 12:17:27;;;;;;;2.15;0.57;;;6.90;99.90;;;;;;5029440;28;20049;-49
2023/03/11 12:20:07;;;;;;;3.95;0.60;;;6.90;99.90;;;;;;5029746;28;20056;-50
2023/03/11 12:22:52;;;;;;;8.77;0.70;;;6.90;99.90;;;;;;5059091;28;20044;-50
2023/03/11 12:25:27;;;;;;;3.63;0.47;;;6.90;99.90;;;;;;5069600;28;20212;-49
2023/03/11 12:28:23;;;;;;;8.77;1.20;;;6.90;99.90;;;;;;5068694;28;20040;-49
2023/03/11 12:30:59;;;;;;;1.83;0.68;;;6.80;99.90;;;;;;5038217;28;20108;-48
2023/03/11 12:33:45;;;;;;;7.05;0.95;;;6.90;99.90;;;;;;5040852;28;20061;-48
2023/03/11 12:36:22;;;;;;;7.90;0.50;;;6.90;99.90;;;;;;5044362;28;20037;-48
2023/03/11 12:38:49;;;;;;;5.15;0.82;;;6.90;99.90;;;;;;5045520;28;20061;-49
2023/03/11 12:41:38;;;;;;;3.63;0.47;;;7.10;99.90;;;;;;5029237;28;20038;-48
2023/03/11 12:44:28;;;;;;;4.43;0.60;;;7.20;99.90;;;;;;5029232;28;20112;-49
2023/03/11 12:46:56;;;;;;;2.50;0.50;;;7.20;99.90;;;;;;5029458;28;20045;-48
2023/03/11 12:49:24;;;;;;;1.05;0.50;;;7.30;99.90;;;;;;5028807;28;20041;-48
2023/03/11 12:52:13;;;;;;;4.90;0.65;;;7.40;99.90;;;;;;5039873;28;20037;-49
2023/03/11 12:54:40;;;;;;;4.30;0.60;;;7.40;99.90;;;;;;5043231;28;20711;-49
2023/03/11 12:57:12;;;;;;;1.27;0.52;;;7.40;99.90;;;;;;5049327;28;20479;-50
2023/03/11 13:00:11;;;;;;;2.15;0.47;;;7.30;99.90;;;;;;5048896;28;20045;-49
2023/03/11 13:03:04;;;;;;;1.42;0.40;;;7.20;99.90;;;;;;5049332;28;20037;-48
2023/03/11 13:05:38;;;;;;;1.33;0.43;;;7.20;99.90;;;;;;5049056;28;20033;-49
2023/03/11 13:08:27;;;;;;;12.00;0.80;;;7.10;99.90;;;;;;5048291;28;20049;-48